Trine Charlotte — LMRY — position and weather

sailwx.info

Track history (hours):
 
Tides and Currents Weather Stations Pressure Air Temp Water Temp Dewpoint Dewpoint Depression Visibility Wind Speed Wind Dir Waves Ship Positions

Trine Charlotte

Last reported at 2014-Oct-02 05:33 UTC. Time now 2014-Oct-02 06:32 UTC.
Position N 69°40' E 018°59'.

Length 66 m; draft 4.6 m.

Type: . MMSI: 257233000.

Date/timePositionNaut miles runAvg speedWind from/ knotsBaromVisibWave heightAir tempDewpointWater temp
2014-Oct-02 05:33N 69°40' E 018°59'0 0.0
2014-Oct-02 04:33N 69°40' E 018°59'1 0.8
2014-Oct-02 03:33N 69°39' E 018°58'0 0.0
2014-Oct-02 02:33N 69°39' E 018°58'0 0.0
2014-Oct-02 01:33N 69°39' E 018°58'8 6.6
2014-Oct-02 00:23N 69°33' E 018°45'  
2014-Sep-29 10:18N 67°37' E 014°39'20 7.4
2014-Sep-29 07:34N 67°30' E 015°28'8 8.4
2014-Sep-29 06:34N 67°22' E 015°35'0 0.0
2014-Sep-29 05:34N 67°22' E 015°35'0 0.0
2014-Sep-29 04:33N 67°22' E 015°35'0 0.0
2014-Sep-29 03:34N 67°22' E 015°35'0 0.0
2014-Sep-29 02:33N 67°22' E 015°35'0 0.0
2014-Sep-29 01:33N 67°22' E 015°35'0 0.0
2014-Sep-29 00:33N 67°22' E 015°35'3 3.0
2014-Sep-28 23:33N 67°25' E 015°33'24 7.9
2014-Sep-28 20:32N 67°37' E 014°40'6 6.0
2014-Sep-28 19:33N 67°42' E 014°31'150 5.0
2014-Sep-27 13:34N 69°37' E 018°55'5 0.6
2014-Sep-27 05:26N 69°42' E 018°55'4 4.2
2014-Sep-27 04:34N 69°41' E 018°45'0 0.0
2014-Sep-27 03:33N 69°41' E 018°45'0 0.0
2014-Sep-27 02:33N 69°41' E 018°45'0 0.0
2014-Sep-27 01:33N 69°41' E 018°45'5 5.1
2014-Sep-27 00:34N 69°36' E 018°52'135 7.8
2014-Sep-26 07:11N 67°55' E 014°45'25 6.6
2014-Sep-26 03:25N 67°31' E 014°29'8 9.0
2014-Sep-26 02:34N 67°23' E 014°26'9 8.7
2014-Sep-26 01:33N 67°16' E 014°13'9 9.1
2014-Sep-26 00:32N 67°08' E 014°01'44 8.6
2014-Sep-25 19:24N 66°32' E 012°58'8 9.2
2014-Sep-25 18:32N 66°24' E 012°59'  
Track history (hours):
 
Tides and Currents Weather Stations Pressure Air Temp Water Temp Dewpoint Dewpoint Depression Visibility Wind Speed Wind Dir Waves Ship Positions

Trine Charlotte

Last reported at 2014-Oct-02 05:33 UTC. Time now 2014-Oct-02 06:32 UTC.
Position N 69°40' E 018°59'.

Length 66 m; draft 4.6 m.

Type: . MMSI: 257233000.

Date/timePositionNaut miles runAvg speedWind from/ knotsBaromVisibWave heightAir tempDewpointWater temp
2014-Oct-02 05:33N 69°40' E 018°59'0 0.0
2014-Oct-02 04:33N 69°40' E 018°59'1 0.8
2014-Oct-02 03:33N 69°39' E 018°58'0 0.0
2014-Oct-02 02:33N 69°39' E 018°58'0 0.0
2014-Oct-02 01:33N 69°39' E 018°58'8 6.6
2014-Oct-02 00:23N 69°33' E 018°45'  
2014-Sep-29 10:18N 67°37' E 014°39'20 7.4
2014-Sep-29 07:34N 67°30' E 015°28'8 8.4
2014-Sep-29 06:34N 67°22' E 015°35'0 0.0
2014-Sep-29 05:34N 67°22' E 015°35'0 0.0
2014-Sep-29 04:33N 67°22' E 015°35'0 0.0
2014-Sep-29 03:34N 67°22' E 015°35'0 0.0
2014-Sep-29 02:33N 67°22' E 015°35'0 0.0
2014-Sep-29 01:33N 67°22' E 015°35'0 0.0
2014-Sep-29 00:33N 67°22' E 015°35'3 3.0
2014-Sep-28 23:33N 67°25' E 015°33'24 7.9
2014-Sep-28 20:32N 67°37' E 014°40'6 6.0
2014-Sep-28 19:33N 67°42' E 014°31'150 5.0
2014-Sep-27 13:34N 69°37' E 018°55'5 0.6
2014-Sep-27 05:26N 69°42' E 018°55'4 4.2
2014-Sep-27 04:34N 69°41' E 018°45'0 0.0
2014-Sep-27 03:33N 69°41' E 018°45'0 0.0
2014-Sep-27 02:33N 69°41' E 018°45'0 0.0
2014-Sep-27 01:33N 69°41' E 018°45'5 5.1
2014-Sep-27 00:34N 69°36' E 018°52'135 7.8
2014-Sep-26 07:11N 67°55' E 014°45'25 6.6
2014-Sep-26 03:25N 67°31' E 014°29'8 9.0
2014-Sep-26 02:34N 67°23' E 014°26'9 8.7
2014-Sep-26 01:33N 67°16' E 014°13'9 9.1
2014-Sep-26 00:32N 67°08' E 014°01'44 8.6
2014-Sep-25 19:24N 66°32' E 012°58'8 9.2
2014-Sep-25 18:32N 66°24' E 012°59'  

Dump ship's entire track history